createdAt,value
2018-05-24T00:01:03.417Z,17.38
2018-05-24T00:03:37.009Z,17.19
2018-05-24T00:06:09.686Z,17.32
2018-05-24T00:08:43.538Z,17.36
2018-05-24T00:11:17.033Z,17.19
2018-05-24T00:13:50.737Z,17.20
2018-05-24T00:16:24.362Z,16.94
2018-05-24T00:18:58.267Z,16.79
2018-05-24T00:21:31.357Z,16.94
2018-05-24T00:24:04.810Z,16.94
2018-05-24T00:26:38.080Z,17.20
2018-05-24T00:29:12.808Z,16.88
2018-05-24T00:31:46.167Z,16.62
2018-05-24T00:34:19.398Z,16.78
2018-05-24T00:36:52.667Z,16.95
2018-05-24T00:39:29.273Z,17.10
2018-05-24T00:42:02.348Z,17.25
2018-05-24T00:44:35.577Z,17.47
2018-05-24T00:47:09.008Z,17.42
2018-05-24T00:49:45.634Z,17.28
2018-05-24T00:52:18.749Z,17.30
2018-05-24T00:54:53.060Z,17.47
2018-05-24T00:57:25.885Z,17.58
2018-05-24T00:59:59.477Z,17.56
2018-05-24T01:02:32.602Z,17.57
2018-05-24T01:05:06.120Z,17.59
2018-05-24T01:07:38.979Z,17.56
2018-05-24T01:10:15.706Z,17.41
2018-05-24T01:12:48.877Z,17.41
2018-05-24T01:15:21.816Z,17.26
2018-05-24T01:17:54.586Z,17.41
2018-05-24T01:20:32.277Z,17.22
2018-05-24T01:23:05.236Z,17.16
2018-05-24T01:25:38.253Z,17.19
2018-05-24T01:28:11.250Z,17.04
2018-05-24T01:30:44.683Z,17.25
2018-05-24T01:33:17.713Z,17.08
2018-05-24T01:35:51.097Z,17.03
2018-05-24T01:38:24.473Z,17.08
2018-05-24T01:40:57.374Z,16.93
2018-05-24T01:43:30.718Z,16.78
2018-05-24T01:46:04.227Z,16.65
2018-05-24T01:48:39.035Z,16.53
2018-05-24T01:51:12.763Z,16.46
2018-05-24T01:53:46.625Z,16.48
2018-05-24T01:56:19.814Z,16.60
2018-05-24T01:58:54.021Z,16.67
2018-05-24T02:01:27.273Z,16.75
2018-05-24T02:04:00.819Z,16.53
2018-05-24T02:06:34.156Z,16.24
2018-05-24T02:09:07.612Z,16.43
2018-05-24T02:11:40.804Z,15.92
2018-05-24T02:14:14.090Z,16.10
2018-05-24T02:16:47.374Z,16.14
2018-05-24T02:19:23.886Z,16.11
2018-05-24T02:21:56.929Z,16.28
2018-05-24T02:24:30.316Z,15.98
2018-05-24T02:27:04.419Z,15.79
2018-05-24T02:29:41.344Z,15.95
2018-05-24T02:32:14.250Z,16.03
2018-05-24T02:34:47.464Z,15.82
2018-05-24T02:37:20.775Z,15.96
2018-05-24T02:39:57.237Z,15.83
2018-05-24T02:42:30.251Z,15.63
2018-05-24T02:45:03.583Z,15.87
2018-05-24T02:47:37.117Z,15.74
2018-05-24T02:50:10.589Z,15.84
2018-05-24T02:52:43.856Z,16.28
2018-05-24T02:55:17.407Z,16.09
2018-05-24T02:57:50.742Z,16.15
2018-05-24T03:00:27.372Z,16.39
2018-05-24T03:03:00.400Z,16.46
2018-05-24T03:05:33.709Z,16.45
2018-05-24T03:08:07.217Z,16.15
2018-05-24T03:10:43.634Z,16.47
2018-05-24T03:13:16.570Z,16.54
2018-05-24T03:15:49.859Z,16.22
2018-05-24T03:18:24.173Z,16.52
2018-05-24T03:20:57.282Z,16.54
2018-05-24T03:23:30.531Z,16.31
2018-05-24T03:26:03.553Z,16.54
2018-05-24T03:28:39.612Z,16.49
2018-05-24T03:31:12.703Z,16.45
2018-05-24T03:33:46.161Z,16.01
2018-05-24T03:36:19.389Z,16.30
2018-05-24T03:38:53.387Z,16.42
2018-05-24T03:41:26.886Z,16.63
2018-05-24T03:44:00.010Z,16.97
2018-05-24T03:46:32.922Z,17.00
2018-05-24T03:49:06.337Z,17.13
2018-05-24T03:51:39.985Z,17.29
2018-05-24T03:54:13.486Z,17.63
2018-05-24T03:56:47.181Z,17.97
2018-05-24T04:02:44.976Z,18.04
2018-05-24T04:05:17.665Z,18.22
2018-05-24T04:07:51.504Z,18.35
2018-05-24T04:10:24.637Z,18.47
2018-05-24T04:12:57.945Z,18.68
2018-05-24T04:15:31.252Z,19.02
2018-05-24T04:18:04.644Z,18.74
2018-05-24T04:20:37.772Z,18.46
2018-05-24T04:23:11.277Z,18.35
2018-05-24T04:25:44.583Z,18.18
2018-05-24T04:28:20.934Z,18.09
2018-05-24T04:30:54.201Z,17.91
2018-05-24T04:33:27.427Z,17.99
2018-05-24T04:36:00.661Z,17.92
2018-05-24T04:38:37.085Z,18.16
2018-05-24T04:41:10.165Z,18.19
2018-05-24T04:43:43.637Z,18.12
2018-05-24T04:46:16.978Z,17.81
2018-05-24T04:48:51.378Z,18.32
2018-05-24T04:51:24.809Z,18.17
2018-05-24T04:53:58.129Z,18.73
2018-05-24T04:56:31.593Z,18.71
2018-05-24T04:59:14.364Z,18.93
2018-05-24T05:01:47.488Z,19.08
2018-05-24T05:04:20.919Z,18.97
2018-05-24T05:06:54.193Z,19.01
2018-05-24T05:09:27.613Z,19.36
2018-05-24T05:12:00.840Z,19.36
2018-05-24T05:14:34.209Z,19.26
2018-05-24T05:17:07.449Z,19.23
2018-05-24T05:19:41.013Z,19.46
2018-05-24T05:22:14.198Z,19.45
2018-05-24T05:24:47.580Z,19.91
2018-05-24T05:27:20.918Z,19.87
2018-05-24T05:29:54.306Z,19.74
2018-05-24T05:32:27.529Z,19.83
2018-05-24T05:35:01.125Z,19.67
2018-05-24T05:37:34.599Z,19.55
2018-05-24T05:40:07.253Z,19.32
2018-05-24T05:42:40.347Z,19.44
2018-05-24T05:45:13.664Z,19.87
2018-05-24T05:47:47.349Z,20.12
2018-05-24T05:50:20.160Z,20.17
2018-05-24T05:52:53.608Z,20.72
2018-05-24T05:55:26.314Z,20.35
2018-05-24T05:58:05.810Z,20.59
2018-05-24T06:00:39.538Z,20.18
2018-05-24T06:03:12.429Z,20.55
2018-05-24T06:05:46.060Z,21.01
2018-05-24T06:08:22.745Z,21.09
2018-05-24T06:10:55.709Z,21.38
2018-05-24T06:13:28.673Z,20.97
2018-05-24T06:17:40.484Z,21.14
2018-05-24T06:20:17.961Z,21.31
2018-05-24T06:22:51.054Z,21.65
2018-05-24T06:26:37.004Z,21.69
2018-05-24T06:29:04.890Z,22.12
2018-05-24T06:31:31.555Z,22.14
2018-05-24T06:33:58.463Z,21.64
2018-05-24T06:36:25.334Z,22.49
2018-05-24T06:38:53.290Z,22.53
2018-05-24T06:41:19.872Z,22.86
2018-05-24T06:43:46.769Z,22.75
2018-05-24T06:46:13.491Z,23.07
2018-05-24T06:48:40.214Z,23.26
2018-05-24T06:51:07.112Z,23.53
2018-05-24T06:53:33.793Z,23.41
2018-05-24T06:56:00.654Z,23.74
2018-05-24T06:58:27.902Z,23.69
2018-05-24T07:00:54.762Z,23.77
2018-05-24T07:03:21.921Z,24.34
2018-05-24T07:05:48.821Z,24.22
2018-05-24T07:08:19.917Z,24.63
2018-05-24T07:10:46.582Z,24.22
2018-05-24T07:13:13.881Z,24.11
2018-05-24T07:15:41.124Z,24.61
2018-05-24T07:18:08.870Z,24.58
2018-05-24T07:20:36.510Z,24.98
2018-05-24T07:23:03.097Z,25.02
2018-05-24T07:25:30.273Z,25.14
2018-05-24T07:28:00.470Z,25.64
2018-05-24T07:30:27.143Z,25.65
2018-05-24T07:32:53.834Z,25.64
2018-05-24T07:35:20.618Z,26.19
2018-05-24T07:37:52.705Z,25.70
2018-05-24T07:40:19.887Z,25.56
2018-05-24T07:42:46.913Z,25.38
2018-05-24T07:45:13.722Z,25.52
2018-05-24T07:47:45.295Z,25.80
2018-05-24T07:50:11.953Z,25.19
2018-05-24T07:52:39.375Z,25.69
2018-05-24T07:55:06.423Z,25.82
2018-05-24T07:57:33.022Z,25.99
2018-05-24T08:00:00.112Z,25.86
2018-05-24T08:02:28.168Z,26.35
2018-05-24T08:04:55.018Z,25.80
2018-05-24T08:07:21.706Z,26.09
2018-05-24T08:09:49.376Z,25.92
2018-05-24T08:12:15.895Z,26.18
2018-05-24T08:14:42.658Z,26.56
2018-05-24T08:17:09.601Z,25.84
2018-05-24T08:19:37.931Z,26.60
2018-05-24T08:22:05.617Z,26.30
2018-05-24T08:24:32.368Z,26.43
2018-05-24T08:26:59.739Z,26.86
2018-05-24T08:29:27.607Z,27.53
2018-05-24T08:31:54.265Z,27.67
2018-05-24T08:34:21.034Z,27.06
2018-05-24T08:36:47.690Z,26.96
2018-05-24T08:39:18.097Z,26.79
2018-05-24T08:41:44.805Z,27.19
2018-05-24T08:44:11.907Z,27.03
2018-05-24T08:46:38.556Z,26.44
2018-05-24T08:49:08.338Z,26.80
2018-05-24T08:51:35.458Z,26.95
2018-05-24T08:54:02.132Z,27.14
2018-05-24T08:56:28.849Z,27.32
2018-05-24T08:59:00.325Z,28.12
2018-05-24T09:01:27.083Z,27.25
2018-05-24T09:03:53.800Z,27.40
2018-05-24T09:06:20.941Z,27.57
2018-05-24T09:08:48.909Z,27.86
2018-05-24T09:11:15.936Z,28.06
2018-05-24T09:13:43.067Z,28.27
2018-05-24T09:16:09.607Z,28.22
2018-05-24T09:18:37.679Z,28.16
2018-05-24T09:21:05.197Z,28.66
2018-05-24T09:23:31.949Z,28.39
2018-05-24T09:25:58.661Z,27.90
2018-05-24T09:28:29.053Z,29.04
2018-05-24T09:30:56.148Z,29.02
2018-05-24T09:33:23.053Z,28.72
2018-05-24T09:35:49.715Z,28.42
2018-05-24T09:38:19.553Z,28.69
2018-05-24T09:40:46.498Z,28.80
2018-05-24T09:43:13.129Z,28.55
2018-05-24T09:45:40.448Z,28.25
2018-05-24T09:48:08.835Z,28.59
2018-05-24T09:50:35.582Z,28.15
2018-05-24T09:53:02.305Z,29.25
2018-05-24T09:55:29.313Z,29.34
2018-05-24T09:58:00.327Z,29.17
2018-05-24T10:00:27.066Z,28.59
2018-05-24T10:02:54.005Z,29.40
2018-05-24T10:05:21.026Z,29.78
2018-05-24T10:07:49.555Z,29.01
2018-05-24T10:10:16.290Z,28.71
2018-05-24T10:12:43.069Z,29.33
2018-05-24T10:15:09.790Z,30.40
2018-05-24T10:17:37.703Z,29.55
2018-05-24T10:20:04.300Z,28.28
2018-05-24T10:22:32.385Z,29.03
2018-05-24T10:24:59.204Z,30.07
2018-05-24T10:27:26.026Z,29.68
2018-05-24T10:29:53.306Z,29.48
2018-05-24T10:32:20.462Z,30.60
2018-05-24T10:34:47.634Z,30.70
2018-05-24T10:37:14.365Z,31.05
2018-05-24T10:39:41.089Z,31.31
2018-05-24T10:42:07.821Z,31.57
2018-05-24T10:44:34.733Z,30.34
2018-05-24T10:47:01.373Z,29.89
2018-05-24T10:49:29.190Z,29.18
2018-05-24T10:51:56.217Z,30.50
2018-05-24T10:54:23.205Z,30.85
2018-05-24T10:56:51.298Z,29.60
2018-05-24T10:59:19.084Z,31.24
2018-05-24T11:01:46.073Z,31.03
2018-05-24T11:04:12.962Z,30.72
2018-05-24T11:06:39.678Z,31.23
2018-05-24T11:09:06.352Z,30.86
2018-05-24T11:11:33.000Z,31.63
2018-05-24T11:14:00.040Z,30.46
2018-05-24T11:16:28.014Z,32.18
2018-05-24T11:18:55.599Z,31.29
2018-05-24T11:21:22.176Z,31.81
2018-05-24T11:23:48.908Z,30.95
2018-05-24T11:26:15.561Z,31.29
2018-05-24T11:28:45.466Z,31.21
2018-05-24T11:31:12.489Z,30.86
2018-05-24T11:33:39.251Z,31.22
2018-05-24T11:36:05.810Z,31.35
2018-05-24T11:38:34.098Z,32.39
2018-05-24T11:41:00.733Z,32.31
2018-05-24T11:43:27.846Z,31.19
2018-05-24T11:45:55.429Z,32.23
2018-05-24T11:48:22.099Z,30.99
2018-05-24T11:50:48.831Z,31.42
2018-05-24T11:53:15.646Z,32.01
2018-05-24T11:55:42.785Z,32.07
2018-05-24T11:58:09.553Z,32.06
2018-05-24T12:00:36.190Z,33.08
2018-05-24T12:03:02.986Z,30.58
2018-05-24T12:05:30.353Z,30.63
2018-05-24T12:07:59.138Z,30.55
2018-05-24T12:10:26.199Z,33.31
2018-05-24T12:12:52.909Z,31.39
2018-05-24T12:15:20.080Z,34.02
2018-05-24T12:17:51.113Z,33.60
2018-05-24T12:20:18.273Z,33.13
2018-05-24T12:22:45.533Z,30.25
2018-05-24T12:25:12.126Z,30.71
2018-05-24T12:27:39.597Z,30.64
2018-05-24T12:30:06.317Z,33.33
2018-05-24T12:32:32.949Z,32.99
2018-05-24T12:34:59.569Z,33.36
2018-05-24T12:37:27.216Z,32.68
2018-05-24T12:39:54.233Z,32.33
2018-05-24T12:42:21.921Z,33.86
2018-05-24T12:44:48.809Z,32.34
2018-05-24T12:47:15.878Z,33.82
2018-05-24T12:49:42.769Z,32.72
2018-05-24T12:52:09.519Z,32.17
2018-05-24T12:54:36.693Z,32.18
2018-05-24T12:57:04.437Z,30.30
2018-05-24T12:59:31.145Z,31.64
2018-05-24T13:01:58.738Z,33.22
2018-05-24T13:04:25.352Z,32.37
2018-05-24T13:06:52.333Z,33.80
2018-05-24T13:09:19.213Z,32.65
2018-05-24T13:11:45.931Z,32.31
2018-05-24T13:14:12.577Z,30.48
2018-05-24T13:16:39.225Z,32.13
2018-05-24T13:19:05.989Z,31.16
2018-05-24T13:21:32.565Z,32.92
2018-05-24T13:23:59.187Z,32.36
2018-05-24T13:26:28.153Z,34.00
2018-05-24T13:28:56.841Z,31.62
2018-05-24T13:31:23.536Z,31.70
2018-05-24T13:33:50.123Z,31.85
2018-05-24T13:36:16.854Z,33.07
2018-05-24T13:38:44.235Z,32.73
2018-05-24T13:41:10.884Z,33.13
2018-05-24T13:43:37.551Z,30.84
2018-05-24T13:46:04.777Z,31.28
2018-05-24T13:48:31.751Z,31.09
2018-05-24T13:50:58.385Z,30.99
2018-05-24T13:53:25.683Z,31.20
2018-05-24T13:55:52.531Z,30.34
2018-05-24T13:58:19.188Z,30.14
2018-05-24T14:00:46.026Z,30.27
2018-05-24T14:03:12.788Z,30.24
2018-05-24T14:05:39.350Z,31.57
2018-05-24T14:08:06.173Z,30.87
2018-05-24T14:10:33.169Z,30.48
2018-05-24T14:12:59.766Z,30.13
2018-05-24T14:15:26.808Z,30.31
2018-05-24T14:17:55.247Z,30.92
2018-05-24T14:20:21.801Z,30.57
2018-05-24T14:22:49.056Z,31.18
2018-05-24T14:25:15.741Z,29.13
2018-05-24T14:27:43.484Z,29.75
2018-05-24T14:30:11.109Z,29.48
2018-05-24T14:32:37.722Z,31.27
2018-05-24T14:35:04.677Z,31.24
2018-05-24T14:37:34.938Z,31.98
2018-05-24T14:40:01.672Z,30.88
2018-05-24T14:42:28.502Z,32.22
2018-05-24T14:44:55.574Z,32.33
2018-05-24T14:47:22.228Z,32.33
2018-05-24T14:49:49.169Z,32.36
2018-05-24T14:52:16.557Z,31.69
2018-05-24T14:54:43.081Z,31.27
2018-05-24T14:57:10.190Z,32.25
2018-05-24T14:59:37.619Z,31.03
2018-05-24T15:02:04.345Z,31.09
2018-05-24T15:04:31.013Z,31.10
2018-05-24T15:06:58.288Z,30.19
2018-05-24T15:09:24.961Z,30.09
2018-05-24T15:11:51.579Z,31.28
2018-05-24T15:14:18.294Z,31.10
2018-05-24T15:16:46.454Z,31.78
2018-05-24T15:19:12.964Z,31.09
2018-05-24T15:21:39.758Z,31.44
2018-05-24T15:24:06.447Z,31.34
2018-05-24T15:26:33.353Z,31.87
2018-05-24T15:29:00.416Z,31.67
2018-05-24T15:31:26.967Z,30.71
2018-05-24T15:33:53.641Z,30.36
2018-05-24T15:36:20.157Z,29.69
2018-05-24T15:38:47.045Z,31.09
2018-05-24T15:41:13.589Z,30.82
2018-05-24T15:43:40.368Z,30.63
2018-05-24T15:46:07.059Z,31.08
2018-05-24T15:48:35.009Z,30.63
2018-05-24T15:51:01.532Z,29.86
2018-05-24T15:53:28.469Z,29.72
2018-05-24T15:55:55.187Z,31.01
2018-05-24T15:58:23.088Z,31.93
2018-05-24T16:00:49.758Z,31.80
2018-05-24T16:03:16.461Z,29.14
2018-05-24T16:05:43.462Z,27.97
2018-05-24T16:08:13.450Z,28.46
2018-05-24T16:10:40.645Z,29.98
2018-05-24T16:13:07.617Z,29.71
2018-05-24T16:15:34.579Z,28.34
2018-05-24T16:18:06.760Z,28.82
2018-05-24T16:20:33.613Z,29.20
2018-05-24T16:23:00.522Z,28.97
2018-05-24T16:25:27.343Z,29.92
2018-05-24T16:27:54.709Z,28.77
2018-05-24T16:30:22.254Z,28.93
2018-05-24T16:32:48.980Z,29.55
2018-05-24T16:35:15.526Z,28.79
2018-05-24T16:37:42.667Z,28.13
2018-05-24T16:40:09.250Z,27.77
2018-05-24T16:42:37.030Z,27.21
2018-05-24T16:45:03.672Z,27.22
2018-05-24T16:47:34.420Z,27.16
2018-05-24T16:50:01.071Z,26.20
2018-05-24T16:52:27.730Z,25.86
2018-05-24T16:54:54.446Z,26.15
2018-05-24T16:57:21.095Z,25.40
2018-05-24T16:59:48.323Z,24.43
2018-05-24T17:02:15.330Z,24.97
2018-05-24T17:04:41.928Z,24.73
2018-05-24T17:07:08.592Z,24.89
2018-05-24T17:09:35.245Z,25.33
2018-05-24T17:12:01.850Z,25.02
2018-05-24T17:14:31.253Z,24.88
2018-05-24T17:16:58.827Z,24.79
2018-05-24T17:19:25.923Z,24.36
2018-05-24T17:21:52.624Z,24.03
2018-05-24T17:24:19.316Z,24.04
2018-05-24T17:26:47.471Z,24.08
2018-05-24T17:29:14.126Z,23.49
2018-05-24T17:31:40.815Z,23.54
2018-05-24T17:34:07.792Z,23.57
2018-05-24T17:36:34.419Z,22.87
2018-05-24T17:39:01.816Z,23.12
2018-05-24T17:41:28.561Z,22.98
2018-05-24T17:43:55.515Z,23.21
2018-05-24T17:46:22.201Z,22.98
2018-05-24T17:48:48.886Z,22.59
2018-05-24T17:51:15.502Z,22.60
2018-05-24T17:53:42.426Z,22.78
2018-05-24T17:56:09.276Z,22.29
2018-05-24T17:58:36.667Z,22.07
2018-05-24T18:01:03.377Z,22.04
2018-05-24T18:03:37.985Z,21.82
2018-05-24T18:06:11.372Z,22.06
2018-05-24T18:08:44.825Z,21.98
2018-05-24T18:11:11.783Z,21.77
2018-05-24T18:13:39.127Z,21.17
2018-05-24T18:16:05.875Z,21.09
2018-05-24T18:18:32.541Z,21.06
2018-05-24T18:20:59.469Z,20.93
2018-05-24T18:23:26.149Z,20.90
2018-05-24T18:25:52.709Z,20.72
2018-05-24T18:28:20.578Z,20.60
2018-05-24T18:30:47.524Z,20.58
2018-05-24T18:33:15.035Z,20.77
2018-05-24T18:35:42.037Z,21.06
2018-05-24T18:38:10.330Z,21.12
2018-05-24T18:40:36.896Z,21.09
2018-05-24T18:43:04.686Z,21.23
2018-05-24T18:45:32.190Z,21.31
2018-05-24T18:47:58.864Z,21.05
2018-05-24T18:50:25.551Z,20.60
2018-05-24T18:52:52.497Z,20.95
2018-05-24T18:55:19.974Z,20.91
2018-05-24T18:57:47.213Z,20.54
2018-05-24T19:00:14.255Z,20.35
2018-05-24T19:02:40.895Z,20.74
2018-05-24T19:05:07.453Z,21.09
2018-05-24T19:07:34.189Z,20.88
2018-05-24T19:10:01.031Z,20.95
2018-05-24T19:12:27.626Z,21.17
2018-05-24T19:14:55.085Z,21.40
2018-05-24T19:17:23.205Z,21.60
2018-05-24T19:19:49.722Z,21.38
2018-05-24T19:22:16.347Z,21.17
2018-05-24T19:24:42.950Z,21.51
2018-05-24T19:27:15.735Z,20.99
2018-05-24T19:29:42.391Z,21.63
2018-05-24T19:32:09.476Z,21.68
2018-05-24T19:34:36.378Z,21.50
2018-05-24T19:37:02.901Z,21.30
2018-05-24T19:39:29.544Z,21.30
2018-05-24T19:41:56.666Z,20.92
2018-05-24T19:44:23.102Z,20.98
2018-05-24T19:46:50.058Z,21.36
2018-05-24T19:49:17.107Z,20.91
2018-05-24T19:51:43.758Z,20.71
2018-05-24T19:54:10.584Z,20.73
2018-05-24T19:56:37.433Z,20.81
2018-05-24T19:59:04.733Z,20.89
2018-05-24T20:01:34.592Z,21.61
2018-05-24T20:04:01.209Z,21.58
2018-05-24T20:06:27.893Z,21.14
2018-05-24T20:08:55.025Z,21.21
2018-05-24T20:11:22.062Z,21.23
2018-05-24T20:13:50.045Z,21.62
2018-05-24T20:16:16.758Z,21.69
2018-05-24T20:18:43.526Z,21.84
2018-05-24T20:21:10.631Z,21.25
2018-05-24T20:23:37.142Z,21.35
2018-05-24T20:26:07.110Z,21.80
2018-05-24T20:28:37.133Z,21.95
2018-05-24T20:31:03.851Z,21.66
2018-05-24T20:33:30.501Z,21.64
2018-05-24T20:36:01.832Z,21.43
2018-05-24T20:38:28.424Z,21.59
2018-05-24T20:40:55.575Z,21.69
2018-05-24T20:43:22.210Z,21.69
2018-05-24T20:45:49.534Z,21.91
2018-05-24T20:48:16.302Z,21.86
2018-05-24T20:50:42.941Z,21.92
2018-05-24T20:53:10.805Z,21.18
2018-05-24T20:55:37.473Z,20.73
2018-05-24T20:58:04.210Z,21.16
2018-05-24T21:00:31.709Z,21.18
2018-05-24T21:02:58.541Z,21.08
2018-05-24T21:05:25.070Z,21.26
2018-05-24T21:07:55.081Z,21.20
2018-05-24T21:10:21.789Z,21.18
2018-05-24T21:12:48.432Z,21.08
2018-05-24T21:15:15.243Z,20.68
2018-05-24T21:17:42.046Z,20.55
2018-05-24T21:20:09.662Z,20.70
2018-05-24T21:22:36.491Z,20.77
2018-05-24T21:25:03.219Z,20.85
2018-05-24T21:27:30.964Z,20.91
2018-05-24T21:29:57.737Z,20.91
2018-05-24T21:32:24.363Z,20.91
2018-05-24T21:34:51.005Z,20.86
2018-05-24T21:37:18.197Z,20.90
2018-05-24T21:39:44.790Z,20.86
2018-05-24T21:42:11.466Z,20.86
2018-05-24T21:44:38.168Z,20.80
2018-05-24T21:47:04.909Z,20.86
2018-05-24T21:49:31.566Z,20.82
2018-05-24T21:51:58.630Z,20.86
2018-05-24T21:54:25.211Z,20.74
2018-05-24T21:56:55.128Z,20.76
2018-05-24T21:59:21.537Z,20.81
2018-05-24T22:01:49.888Z,20.70
2018-05-24T22:04:16.530Z,20.74
2018-05-24T22:06:46.442Z,20.69
2018-05-24T22:09:18.378Z,20.72
2018-05-24T22:11:45.078Z,20.76
2018-05-24T22:14:11.615Z,20.76
2018-05-24T22:16:38.549Z,20.70
2018-05-24T22:19:05.745Z,20.79
2018-05-24T22:21:32.411Z,20.78
2018-05-24T22:23:58.989Z,20.75
2018-05-24T22:26:25.841Z,20.67
2018-05-24T22:28:52.377Z,20.58
2018-05-24T22:31:19.076Z,20.52
2018-05-24T22:33:46.164Z,20.55
2018-05-24T22:36:16.329Z,20.52
2018-05-24T22:38:42.939Z,20.32
2018-05-24T22:41:09.845Z,20.27
2018-05-24T22:43:36.511Z,20.24
2018-05-24T22:46:06.269Z,20.18
2018-05-24T22:48:32.939Z,20.05
2018-05-24T22:50:59.442Z,20.07
2018-05-24T22:53:26.101Z,19.97
2018-05-24T22:55:52.922Z,20.02
2018-05-24T22:58:19.497Z,20.07
2018-05-24T23:00:46.031Z,20.12
2018-05-24T23:03:12.674Z,20.24
2018-05-24T23:05:45.256Z,20.22
2018-05-24T23:08:11.899Z,20.18
2018-05-24T23:10:38.524Z,20.17
2018-05-24T23:13:05.274Z,20.16
2018-05-24T23:15:37.147Z,20.14
2018-05-24T23:18:03.767Z,20.09
2018-05-24T23:20:30.441Z,20.03
2018-05-24T23:22:57.426Z,19.89
2018-05-24T23:25:24.246Z,19.95
2018-05-24T23:27:50.929Z,19.87
2018-05-24T23:30:17.703Z,19.84
2018-05-24T23:32:44.469Z,19.94
2018-05-24T23:35:11.154Z,19.95
2018-05-24T23:37:37.862Z,20.01
2018-05-24T23:40:04.313Z,20.23
2018-05-24T23:42:30.963Z,20.20
2018-05-24T23:44:57.543Z,20.44
2018-05-24T23:47:28.016Z,20.31
2018-05-24T23:49:54.737Z,20.24
2018-05-24T23:52:21.413Z,20.32
2018-05-24T23:54:48.172Z,20.22
2018-05-24T23:57:17.835Z,20.26
2018-05-24T23:59:44.880Z,20.18
